createdAt,value
2019-03-22T00:23:01.913Z,91.90
2019-03-22T00:25:31.081Z,91.80
2019-03-22T00:28:00.583Z,91.80
2019-03-22T00:30:30.010Z,91.80
2019-03-22T00:32:59.191Z,92.00
2019-03-22T00:35:28.441Z,92.10
2019-03-22T00:37:57.603Z,92.20
2019-03-22T00:40:26.774Z,92.20
2019-03-22T00:42:55.934Z,92.20
2019-03-22T00:45:25.093Z,92.20
2019-03-22T00:47:54.325Z,92.30
2019-03-22T00:50:23.618Z,92.40
2019-03-22T00:52:52.837Z,92.40
2019-03-22T00:55:22.125Z,92.30
2019-03-22T00:57:51.282Z,92.50
2019-03-22T01:00:20.465Z,92.60
2019-03-22T01:02:49.621Z,92.50
2019-03-22T01:05:19.123Z,92.50
2019-03-22T01:07:48.278Z,92.70
2019-03-22T01:10:17.434Z,92.80
2019-03-22T01:12:46.623Z,92.80
2019-03-22T01:15:16.349Z,93.00
2019-03-22T01:17:45.529Z,93.10
2019-03-22T01:20:14.717Z,93.10
2019-03-22T01:22:43.886Z,93.10
2019-03-22T01:25:13.101Z,93.50
2019-03-22T01:27:42.265Z,93.10
2019-03-22T01:30:12.145Z,93.10
2019-03-22T01:32:41.297Z,93.30
2019-03-22T01:35:10.499Z,93.20
2019-03-22T01:37:39.683Z,93.10
2019-03-22T01:40:08.961Z,93.10
2019-03-22T01:42:38.186Z,93.10
2019-03-22T01:45:08.054Z,93.30
2019-03-22T01:47:37.488Z,93.30
2019-03-22T01:50:08.154Z,93.40
2019-03-22T01:52:37.830Z,93.40
2019-03-22T01:55:07.034Z,93.50
2019-03-22T01:57:36.193Z,93.40
2019-03-22T02:00:06.183Z,93.50
2019-03-22T02:02:35.473Z,93.60
2019-03-22T02:05:05.201Z,93.60
2019-03-22T02:07:34.388Z,93.70
2019-03-22T02:10:04.035Z,93.70
2019-03-22T02:12:33.204Z,93.70
2019-03-22T02:15:02.467Z,93.80
2019-03-22T02:17:31.937Z,93.90
2019-03-22T02:20:01.122Z,94.00
2019-03-22T02:22:30.284Z,94.10
2019-03-22T02:24:59.451Z,94.10
2019-03-22T02:27:28.633Z,94.20
2019-03-22T02:29:57.793Z,94.20
2019-03-22T02:32:26.907Z,94.20
2019-03-22T02:34:56.012Z,94.20
2019-03-22T02:37:25.104Z,94.20
2019-03-22T02:39:54.244Z,94.10
2019-03-22T02:42:23.341Z,94.10
2019-03-22T02:44:52.514Z,94.30
2019-03-22T02:47:21.612Z,94.40
2019-03-22T02:49:50.714Z,94.30
2019-03-22T02:52:19.839Z,94.40
2019-03-22T02:54:48.958Z,94.30
2019-03-22T02:57:18.091Z,94.40
2019-03-22T02:59:47.189Z,94.50
2019-03-22T03:02:16.295Z,94.60
2019-03-22T03:04:45.429Z,94.40
2019-03-22T03:07:14.531Z,94.40
2019-03-22T03:09:43.682Z,94.50
2019-03-22T03:12:12.775Z,94.50
2019-03-22T03:14:41.904Z,94.90
2019-03-22T03:17:11.271Z,94.50
2019-03-22T03:19:40.988Z,94.50
2019-03-22T03:22:10.098Z,94.50
2019-03-22T03:24:39.199Z,94.60
2019-03-22T03:27:08.331Z,94.60
2019-03-22T03:29:37.801Z,94.60
2019-03-22T03:32:06.905Z,94.60
2019-03-22T03:34:36.031Z,94.60
2019-03-22T03:37:05.472Z,94.60
2019-03-22T03:39:34.587Z,94.50
2019-03-22T03:42:03.720Z,94.70
2019-03-22T03:44:32.830Z,94.60
2019-03-22T03:47:02.489Z,94.70
2019-03-22T03:49:31.587Z,94.70
2019-03-22T03:52:00.718Z,94.70
2019-03-22T03:54:30.459Z,94.70
2019-03-22T03:56:59.574Z,94.70
2019-03-22T03:59:28.700Z,94.70
2019-03-22T04:01:57.879Z,94.70
2019-03-22T04:04:27.359Z,94.70
2019-03-22T04:06:56.479Z,94.90
2019-03-22T04:09:25.589Z,94.90
2019-03-22T04:11:54.972Z,94.90
2019-03-22T04:14:24.348Z,95.00
2019-03-22T04:16:54.086Z,95.00
2019-03-22T04:19:23.198Z,95.00
2019-03-22T04:21:52.301Z,95.10
2019-03-22T04:24:21.424Z,95.00
2019-03-22T04:26:50.535Z,94.90
2019-03-22T04:29:19.932Z,95.00
2019-03-22T04:31:49.036Z,95.10
2019-03-22T04:34:18.139Z,95.20
2019-03-22T04:36:47.278Z,95.20
2019-03-22T04:39:16.386Z,95.20
2019-03-22T04:41:45.511Z,95.40
2019-03-22T04:44:14.922Z,95.40
2019-03-22T04:46:44.023Z,95.30
2019-03-22T04:49:13.178Z,95.50
2019-03-22T04:51:42.531Z,95.70
2019-03-22T04:54:11.696Z,95.50
2019-03-22T04:56:40.790Z,95.50
2019-03-22T04:59:19.004Z,95.40
2019-03-22T05:01:43.207Z,95.30
2019-03-22T05:04:12.666Z,95.50
2019-03-22T05:06:41.844Z,95.60
2019-03-22T05:09:10.967Z,95.50
2019-03-22T05:11:40.470Z,95.70
2019-03-22T05:14:09.583Z,95.70
2019-03-22T05:16:38.762Z,95.60
2019-03-22T05:19:08.187Z,95.60
2019-03-22T05:21:37.286Z,95.70
2019-03-22T05:24:06.691Z,95.60
2019-03-22T05:26:36.131Z,95.70
2019-03-22T05:29:05.242Z,95.70
2019-03-22T05:31:57.128Z,95.90
2019-03-22T05:34:26.646Z,95.90
2019-03-22T05:36:56.174Z,96.10
2019-03-22T05:39:25.295Z,96.20
2019-03-22T05:41:54.403Z,96.20
2019-03-22T05:44:24.713Z,96.10
2019-03-22T05:46:53.815Z,96.10
2019-03-22T05:49:22.970Z,96.20
2019-03-22T05:51:52.125Z,96.30
2019-03-22T05:54:21.295Z,96.20
2019-03-22T05:56:50.447Z,96.00
2019-03-22T05:59:19.603Z,95.90
2019-03-22T06:01:49.065Z,95.80
2019-03-22T06:04:18.178Z,95.70
2019-03-22T06:06:47.295Z,95.60
2019-03-22T06:09:16.422Z,95.50
2019-03-22T06:11:45.623Z,95.50
2019-03-22T06:14:14.710Z,95.60
2019-03-22T06:16:43.839Z,95.80
2019-03-22T06:19:13.010Z,95.60
2019-03-22T06:21:42.182Z,95.60
2019-03-22T06:24:11.331Z,95.50
2019-03-22T06:26:40.470Z,95.40
2019-03-22T06:29:09.591Z,95.10
2019-03-22T06:31:38.984Z,95.00
2019-03-22T06:34:08.099Z,94.90
2019-03-22T06:36:37.199Z,94.80
2019-03-22T06:39:08.860Z,94.70
2019-03-22T06:41:38.770Z,94.30
2019-03-22T06:44:08.175Z,93.90
2019-03-22T06:46:37.368Z,93.10
2019-03-22T06:49:06.710Z,92.80
2019-03-22T06:51:36.752Z,92.60
2019-03-22T06:54:06.160Z,92.40
2019-03-22T06:56:35.254Z,91.80
2019-03-22T06:59:04.396Z,91.50
2019-03-22T07:01:33.710Z,90.40
2019-03-22T07:04:02.875Z,89.40
2019-03-22T07:06:32.014Z,88.40
2019-03-22T07:09:01.177Z,87.30
2019-03-22T07:11:30.298Z,86.30
2019-03-22T07:13:59.763Z,84.80
2019-03-22T07:16:28.859Z,81.40
2019-03-22T07:18:58.103Z,76.90
2019-03-22T07:21:27.206Z,73.80
2019-03-22T07:23:56.433Z,70.00
2019-03-22T07:26:25.547Z,65.60
2019-03-22T07:28:54.649Z,63.50
2019-03-22T07:31:23.765Z,60.50
2019-03-22T07:33:53.228Z,58.70
2019-03-22T07:36:22.402Z,56.50
2019-03-22T07:38:51.514Z,55.10
2019-03-22T07:41:20.614Z,55.40
2019-03-22T07:43:49.742Z,57.20
2019-03-22T07:46:18.878Z,56.20
2019-03-22T07:48:48.354Z,55.90
2019-03-22T07:51:17.471Z,56.00
2019-03-22T07:53:46.630Z,55.20
2019-03-22T07:56:16.094Z,54.30
2019-03-22T07:58:45.199Z,53.80
2019-03-22T08:01:14.354Z,50.50
2019-03-22T08:03:43.456Z,46.20
2019-03-22T08:06:12.558Z,43.10
2019-03-22T08:08:41.682Z,41.00
2019-03-22T08:11:10.780Z,39.30
2019-03-22T08:13:39.907Z,38.30
2019-03-22T08:16:09.013Z,36.60
2019-03-22T08:18:38.474Z,35.40
2019-03-22T08:21:07.610Z,33.10
2019-03-22T08:23:36.769Z,31.70
2019-03-22T08:26:05.932Z,29.40
2019-03-22T08:28:35.623Z,29.20
2019-03-22T08:31:05.725Z,27.70
2019-03-22T08:33:35.364Z,27.00
2019-03-22T08:36:04.825Z,25.70
2019-03-22T08:38:33.992Z,25.50
2019-03-22T08:41:03.175Z,25.60
2019-03-22T08:43:32.291Z,26.30
2019-03-22T08:46:01.452Z,27.70
2019-03-22T08:48:30.604Z,29.30
2019-03-22T08:51:00.159Z,29.60
2019-03-22T08:53:29.306Z,29.60
2019-03-22T08:55:58.442Z,28.50
2019-03-22T08:58:27.919Z,28.50
2019-03-22T09:00:58.221Z,28.00
2019-03-22T09:03:27.407Z,27.40
2019-03-22T09:06:15.633Z,27.30
2019-03-22T09:08:47.712Z,27.10
2019-03-22T09:11:18.069Z,26.60
2019-03-22T09:13:46.761Z,26.90
2019-03-22T09:16:15.944Z,26.10
2019-03-22T09:18:45.136Z,26.50
2019-03-22T09:21:14.660Z,26.80
2019-03-22T09:23:43.849Z,27.40
2019-03-22T09:26:13.082Z,27.10
2019-03-22T09:28:42.230Z,26.70
2019-03-22T09:31:12.052Z,26.70
2019-03-22T09:33:41.400Z,27.20
2019-03-22T09:36:10.590Z,27.30
2019-03-22T09:38:39.834Z,27.10
2019-03-22T09:41:08.976Z,27.30
2019-03-22T09:43:38.180Z,27.10
2019-03-22T09:46:07.638Z,26.80
2019-03-22T09:48:36.876Z,26.30
2019-03-22T09:51:06.152Z,27.10
2019-03-22T09:53:35.341Z,27.50
2019-03-22T09:56:04.841Z,28.30
2019-03-22T09:58:34.027Z,29.70
2019-03-22T10:01:03.328Z,30.00
2019-03-22T10:03:32.531Z,29.20
2019-03-22T10:06:02.035Z,27.90
2019-03-22T10:08:31.185Z,28.10
2019-03-22T10:11:00.654Z,26.70
2019-03-22T10:13:29.825Z,26.20
2019-03-22T10:15:59.423Z,26.40
2019-03-22T10:18:28.607Z,26.40
2019-03-22T10:20:57.760Z,26.50
2019-03-22T10:23:27.193Z,26.20
2019-03-22T10:25:56.364Z,25.70
2019-03-22T10:28:27.888Z,25.20
2019-03-22T10:30:57.066Z,24.50
2019-03-22T10:33:26.575Z,24.90
2019-03-22T10:35:55.788Z,24.90
2019-03-22T10:38:31.913Z,25.50
2019-03-22T10:40:56.525Z,25.60
2019-03-22T10:43:25.736Z,25.30
2019-03-22T10:45:55.198Z,25.20
2019-03-22T10:48:24.409Z,24.80
2019-03-22T10:50:53.920Z,24.80
2019-03-22T10:53:23.118Z,24.20
2019-03-22T10:55:52.256Z,24.40
2019-03-22T10:58:21.711Z,24.60
2019-03-22T11:00:51.327Z,24.90
2019-03-22T11:03:20.752Z,25.50
2019-03-22T11:05:49.966Z,25.10
2019-03-22T11:08:19.453Z,24.90
2019-03-22T11:10:48.604Z,26.10
2019-03-22T11:13:17.810Z,27.30
2019-03-22T11:15:48.717Z,27.90
2019-03-22T11:18:17.935Z,27.70
2019-03-22T11:20:47.084Z,28.70
2019-03-22T11:23:16.246Z,29.80
2019-03-22T11:25:45.420Z,30.00
2019-03-22T11:28:14.561Z,30.10
2019-03-22T11:30:43.757Z,30.80
2019-03-22T11:33:12.913Z,29.60
2019-03-22T11:35:42.079Z,29.10
2019-03-22T11:38:11.252Z,28.90
2019-03-22T11:40:40.403Z,28.80
2019-03-22T11:43:09.571Z,28.50
2019-03-22T11:45:38.729Z,29.10
2019-03-22T11:48:07.909Z,28.10
2019-03-22T11:50:37.060Z,27.90
2019-03-22T11:53:06.224Z,28.40
2019-03-22T11:55:35.701Z,28.80
2019-03-22T11:58:04.921Z,28.20
2019-03-22T12:00:34.095Z,28.30
2019-03-22T12:03:03.241Z,29.10
2019-03-22T12:05:40.066Z,29.50
2019-03-22T12:08:03.315Z,29.30
2019-03-22T12:10:32.544Z,29.30
2019-03-22T12:13:01.753Z,28.90
2019-03-22T12:15:30.936Z,28.90
2019-03-22T12:18:00.089Z,28.90
2019-03-22T12:20:29.335Z,29.30
2019-03-22T12:22:58.480Z,29.30
2019-03-22T12:25:27.670Z,28.40
2019-03-22T12:27:56.916Z,28.60
2019-03-22T12:30:26.060Z,29.30
2019-03-22T12:32:55.531Z,28.90
2019-03-22T12:35:24.685Z,30.00
2019-03-22T12:37:53.873Z,30.00
2019-03-22T12:40:23.381Z,30.80
2019-03-22T12:42:52.597Z,30.80
2019-03-22T12:45:22.899Z,31.00
2019-03-22T12:47:52.061Z,31.60
2019-03-22T12:50:21.532Z,31.40
2019-03-22T12:52:50.769Z,31.30
2019-03-22T12:55:19.938Z,32.60
2019-03-22T12:57:49.108Z,33.50
2019-03-22T13:00:20.068Z,32.90
2019-03-22T13:02:49.269Z,32.10
2019-03-22T13:05:18.420Z,30.90
2019-03-22T13:07:47.604Z,30.80
2019-03-22T13:10:17.768Z,30.80
2019-03-22T13:12:46.990Z,30.60
2019-03-22T13:15:16.158Z,31.00
2019-03-22T13:17:45.693Z,31.10
2019-03-22T13:20:15.426Z,31.60
2019-03-22T13:22:44.599Z,31.60
2019-03-22T13:25:13.835Z,31.70
2019-03-22T13:27:42.987Z,32.30
2019-03-22T13:30:12.259Z,33.20
2019-03-22T13:32:41.387Z,34.00
2019-03-22T13:35:10.892Z,34.10
2019-03-22T13:37:40.015Z,34.10
2019-03-22T13:40:10.298Z,35.20
2019-03-22T13:42:39.442Z,35.20
2019-03-22T13:45:08.594Z,36.30
2019-03-22T13:47:37.750Z,36.80
2019-03-22T13:50:08.560Z,36.40
2019-03-22T13:52:37.735Z,36.30
2019-03-22T13:55:07.022Z,36.50
2019-03-22T13:57:36.420Z,37.00
2019-03-22T14:00:06.954Z,37.20
2019-03-22T14:02:36.110Z,38.50
2019-03-22T14:05:06.663Z,38.50
2019-03-22T14:07:35.787Z,39.10
2019-03-22T14:10:05.077Z,39.30
2019-03-22T14:12:37.247Z,40.30
2019-03-22T14:15:05.411Z,40.30
2019-03-22T14:17:34.553Z,40.80
2019-03-22T14:20:11.247Z,41.00
2019-03-22T14:22:34.587Z,40.60
2019-03-22T14:25:03.857Z,40.80
2019-03-22T14:27:33.637Z,40.70
2019-03-22T14:30:03.159Z,41.20
2019-03-22T14:32:32.776Z,41.60
2019-03-22T14:35:02.054Z,41.90
2019-03-22T14:37:31.315Z,42.60
2019-03-22T14:40:00.623Z,42.40
2019-03-22T14:42:29.838Z,42.90
2019-03-22T14:44:58.956Z,43.10
2019-03-22T14:47:47.626Z,43.80
2019-03-22T14:50:16.706Z,44.00
2019-03-22T14:52:45.798Z,45.90
2019-03-22T14:55:16.602Z,45.60
2019-03-22T14:57:50.106Z,46.00
2019-03-22T15:00:17.091Z,46.20
2019-03-22T15:02:46.190Z,46.50
2019-03-22T15:05:15.299Z,46.60
2019-03-22T15:07:44.434Z,47.00
2019-03-22T15:10:25.218Z,46.20
2019-03-22T15:12:54.818Z,46.70
2019-03-22T15:15:45.907Z,46.60
2019-03-22T15:18:44.555Z,46.90
2019-03-22T15:21:31.683Z,46.70
2019-03-22T15:24:26.341Z,46.90
2019-03-22T15:27:13.191Z,47.00
2019-03-22T15:30:01.400Z,46.80
2019-03-22T15:32:53.078Z,46.80
2019-03-22T15:35:40.265Z,47.50
2019-03-22T15:38:29.021Z,47.10
2019-03-22T15:40:58.650Z,47.40
2019-03-22T15:43:27.750Z,47.60
2019-03-22T15:45:56.870Z,48.10
2019-03-22T15:48:25.987Z,47.80
2019-03-22T15:50:55.102Z,48.50
2019-03-22T15:53:24.414Z,48.80
2019-03-22T15:55:53.526Z,48.90
2019-03-22T15:58:22.628Z,48.80
2019-03-22T16:00:51.770Z,48.90
2019-03-22T16:03:20.942Z,49.10
2019-03-22T16:05:50.111Z,49.00
2019-03-22T16:08:19.219Z,48.90
2019-03-22T16:10:48.362Z,49.10
2019-03-22T16:13:17.559Z,49.40
2019-03-22T16:15:46.675Z,49.30
2019-03-22T16:18:15.787Z,49.70
2019-03-22T16:20:44.894Z,49.50
2019-03-22T16:23:13.995Z,49.50
2019-03-22T16:25:43.173Z,49.50
2019-03-22T16:28:12.318Z,49.80
2019-03-22T16:30:41.470Z,49.70
2019-03-22T16:33:10.591Z,50.40
2019-03-22T16:35:39.703Z,50.20
2019-03-22T16:38:08.842Z,50.60
2019-03-22T16:40:38.264Z,51.00
2019-03-22T16:43:07.414Z,51.00
2019-03-22T16:45:38.689Z,51.30
2019-03-22T16:48:07.818Z,51.50
2019-03-22T16:50:36.950Z,51.40
2019-03-22T16:53:06.135Z,51.30
2019-03-22T16:55:35.272Z,51.50
2019-03-22T16:58:04.374Z,51.80
2019-03-22T17:00:33.847Z,52.10
2019-03-22T17:03:03.198Z,52.20
2019-03-22T17:05:32.309Z,52.40
2019-03-22T17:08:01.550Z,52.70
2019-03-22T17:10:30.663Z,52.90
2019-03-22T17:12:59.798Z,53.40
2019-03-22T17:15:28.930Z,53.70
2019-03-22T17:17:58.050Z,54.80
2019-03-22T17:20:27.479Z,54.80
2019-03-22T17:22:56.607Z,56.10
2019-03-22T17:25:25.715Z,56.60
2019-03-22T17:27:54.858Z,57.20
2019-03-22T17:30:23.944Z,57.50
2019-03-22T17:32:53.058Z,58.10
2019-03-22T17:35:22.254Z,58.40
2019-03-22T17:37:51.761Z,59.20
2019-03-22T17:40:20.943Z,59.80
2019-03-22T17:42:50.071Z,60.10
2019-03-22T17:45:19.183Z,60.50
2019-03-22T17:47:48.283Z,60.90
2019-03-22T17:50:17.750Z,61.70
2019-03-22T17:52:46.867Z,62.30
2019-03-22T17:55:15.970Z,63.70
2019-03-22T17:57:45.114Z,63.20
2019-03-22T18:00:15.012Z,63.60
2019-03-22T18:02:44.121Z,64.40
2019-03-22T18:05:13.430Z,65.00
2019-03-22T18:07:42.530Z,65.70
2019-03-22T18:10:11.682Z,66.60
2019-03-22T18:12:40.812Z,67.20
2019-03-22T18:15:09.994Z,67.90
2019-03-22T18:17:39.115Z,68.30
2019-03-22T18:20:09.370Z,69.00
2019-03-22T18:22:38.474Z,69.20
2019-03-22T18:25:08.191Z,70.00
2019-03-22T18:27:37.310Z,70.70
2019-03-22T18:30:07.627Z,71.00
2019-03-22T18:32:36.728Z,71.90
2019-03-22T18:35:06.039Z,72.50
2019-03-22T18:37:35.140Z,72.90
2019-03-22T18:40:04.615Z,73.20
2019-03-22T18:42:33.732Z,73.60
2019-03-22T18:45:03.287Z,74.30
2019-03-22T18:47:32.418Z,75.00
2019-03-22T18:50:01.523Z,75.20
2019-03-22T18:52:30.734Z,75.60
2019-03-22T18:54:59.923Z,76.00
2019-03-22T18:57:29.143Z,76.30
2019-03-22T18:59:58.352Z,76.90
2019-03-22T19:02:27.690Z,77.30
2019-03-22T19:04:57.362Z,77.70
2019-03-22T19:07:27.047Z,78.20
2019-03-22T19:09:56.330Z,78.50
2019-03-22T19:12:25.967Z,78.70
2019-03-22T19:14:58.224Z,79.10
2019-03-22T19:17:27.406Z,79.50
2019-03-22T19:19:56.534Z,79.60
2019-03-22T19:22:25.691Z,80.10
2019-03-22T19:24:55.165Z,80.60
2019-03-22T19:27:24.278Z,81.10
2019-03-22T19:29:53.388Z,81.40
2019-03-22T19:32:22.783Z,82.30
2019-03-22T19:34:54.605Z,81.90
2019-03-22T19:37:23.037Z,82.60
2019-03-22T19:39:52.154Z,82.50
2019-03-22T19:42:21.263Z,82.90
2019-03-22T19:44:50.426Z,83.80
2019-03-22T19:47:19.558Z,83.70
2019-03-22T19:49:48.689Z,84.00
2019-03-22T19:52:17.795Z,84.30
2019-03-22T19:54:46.958Z,84.80
2019-03-22T19:57:16.071Z,84.70
2019-03-22T19:59:45.551Z,85.00
2019-03-22T20:02:14.638Z,85.40
2019-03-22T20:04:44.122Z,85.40
2019-03-22T20:07:13.319Z,85.90
2019-03-22T20:09:42.822Z,86.10
2019-03-22T20:12:12.006Z,86.50
2019-03-22T20:14:41.110Z,86.70
2019-03-22T20:17:11.189Z,86.70
2019-03-22T20:19:40.298Z,87.10
2019-03-22T20:22:09.414Z,87.30
2019-03-22T20:24:38.593Z,87.60
2019-03-22T20:27:07.702Z,87.80
2019-03-22T20:29:36.841Z,88.00
2019-03-22T20:32:06.368Z,88.20
2019-03-22T20:34:35.480Z,88.30
2019-03-22T20:37:04.586Z,88.50
2019-03-22T20:39:33.729Z,88.60
2019-03-22T20:42:02.838Z,88.50
2019-03-22T20:44:34.186Z,88.80
2019-03-22T20:47:02.830Z,89.20
2019-03-22T20:49:31.969Z,89.70
2019-03-22T20:52:01.103Z,90.00
2019-03-22T20:54:31.455Z,90.20
2019-03-22T20:57:01.402Z,90.20
2019-03-22T20:59:30.585Z,90.20
2019-03-22T21:02:00.137Z,90.40
2019-03-22T21:04:29.568Z,90.50
2019-03-22T21:06:58.687Z,90.50
2019-03-22T21:09:27.910Z,90.60
2019-03-22T21:11:57.080Z,90.80
2019-03-22T21:14:26.281Z,90.80
2019-03-22T21:16:55.397Z,90.90
2019-03-22T21:19:24.513Z,91.00
2019-03-22T21:21:53.752Z,91.00
2019-03-22T21:24:22.884Z,91.00
2019-03-22T21:26:51.994Z,91.10
2019-03-22T21:29:21.161Z,91.10
2019-03-22T21:31:50.270Z,91.10
2019-03-22T21:34:19.798Z,91.20
2019-03-22T21:36:49.378Z,91.30
2019-03-22T21:39:18.485Z,91.40
2019-03-22T21:41:47.600Z,91.50
2019-03-22T21:44:17.023Z,91.60
2019-03-22T21:46:46.148Z,91.80
2019-03-22T21:49:15.242Z,91.70
2019-03-22T21:51:44.354Z,91.90
2019-03-22T21:54:13.461Z,92.00
2019-03-22T21:56:42.617Z,92.20
2019-03-22T21:59:12.123Z,92.20
2019-03-22T22:01:41.247Z,92.30
2019-03-22T22:04:10.326Z,92.30
2019-03-22T22:06:39.690Z,92.30
2019-03-22T22:09:08.790Z,92.40
2019-03-22T22:11:38.065Z,92.60
2019-03-22T22:14:07.452Z,92.70
2019-03-22T22:16:36.559Z,92.70
2019-03-22T22:19:05.690Z,92.80
2019-03-22T22:21:34.850Z,92.80
2019-03-22T22:24:03.983Z,92.90
2019-03-22T22:26:33.218Z,93.00
2019-03-22T22:29:03.018Z,92.90
2019-03-22T22:31:32.138Z,92.90
2019-03-22T22:34:01.274Z,92.90
2019-03-22T22:36:30.502Z,93.10
2019-03-22T22:38:59.985Z,93.10
2019-03-22T22:41:29.165Z,93.10
2019-03-22T22:43:58.302Z,93.20
2019-03-22T22:46:27.411Z,93.10
2019-03-22T22:48:56.519Z,93.20
2019-03-22T22:51:25.659Z,93.20
2019-03-22T22:53:54.830Z,93.40
2019-03-22T22:56:23.926Z,93.50
2019-03-22T22:58:53.054Z,93.70
